Time;durP1;ratioP1;P1;durP2;ratioP2;P2;SDS_P1;SDS_P2;PMS_P1;PMS_P2;Temp;Humidity;BMP_temperature;BMP_pressure;BME280_temperature;BME280_humidity;BME280_pressure;Samples;Min_cycle;Max_cycle;Signal;HPM_P1;HPM_P2
2022/05/22 00:02:02;;;;;;;;;;;;;;;14.98;60.69;101811.91;5092814;28;19963;-69
2022/05/22 00:04:28;;;;;;;;;;;;;;;14.96;60.82;101813.84;5091372;28;20329;-69
2022/05/22 00:06:53;;;;;;;;;;;;;;;14.92;60.75;101810.50;5094627;28;19926;-69
2022/05/22 00:09:19;;;;;;;;;;;;;;;14.91;60.95;101806.13;5094480;28;19916;-69
2022/05/22 00:11:44;;;;;;;;;;;;;;;14.90;60.95;101806.19;5097925;28;19956;-69
2022/05/22 00:14:11;;;;;;;;;;;;;;;14.88;60.92;101806.31;5095191;28;20355;-69
2022/05/22 00:16:37;;;;;;;;;;;;;;;14.88;61.00;101800.97;5094220;28;19916;-69
2022/05/22 00:19:28;;;;;;;;;;;;;;;14.87;60.79;101798.38;5093719;28;19919;-69
2022/05/22 00:21:55;;;;;;;;;;;;;;;14.90;60.76;101800.84;5096321;28;19915;-68
2022/05/22 00:24:21;;;;;;;;;;;;;;;14.94;61.12;101797.00;5095173;28;19916;-69
2022/05/22 00:26:46;;;;;;;;;;;;;;;14.97;61.53;101802.16;5092980;28;20002;-69
2022/05/22 00:29:12;;;;;;;;;;;;;;;14.96;61.06;101787.03;5093403;28;20007;-69
2022/05/22 00:31:38;;;;;;;;;;;;;;;14.97;61.29;101795.00;5095710;28;19971;-69
2022/05/22 00:34:03;;;;;;;;;;;;;;;14.96;61.54;101790.56;5096075;28;20346;-70
2022/05/22 00:36:29;;;;;;;;;;;;;;;14.97;61.84;101788.75;5095167;28;19958;-69
2022/05/22 00:38:55;;;;;;;;;;;;;;;14.95;61.94;101788.00;5096051;28;20283;-69
2022/05/22 00:41:22;;;;;;;;;;;;;;;14.97;61.98;101789.63;5096830;28;19928;-69
2022/05/22 00:43:50;;;;;;;;;;;;;;;14.95;62.26;101780.84;5095529;28;20010;-69
2022/05/22 00:46:19;;;;;;;;;;;;;;;14.97;61.96;101775.34;5093989;28;20027;-69
2022/05/22 00:48:47;;;;;;;;;;;;;;;14.99;62.45;101776.13;5093184;28;20117;-69
2022/05/22 00:51:20;;;;;;;;;;;;;;;14.99;62.47;101773.44;5095895;28;20282;-69
2022/05/22 00:53:49;;;;;;;;;;;;;;;14.99;61.65;101770.75;5093252;28;19912;-69
2022/05/22 00:56:16;;;;;;;;;;;;;;;14.96;63.30;101779.00;5095216;28;20002;-69
2022/05/22 00:58:42;;;;;;;;;;;;;;;14.92;63.06;101780.19;5091297;28;19915;-69
2022/05/22 01:01:07;;;;;;;;;;;;;;;14.91;62.72;101767.72;5095881;28;19918;-69
2022/05/22 01:03:32;;;;;;;;;;;;;;;14.92;62.94;101767.66;5095798;28;19963;-69
2022/05/22 01:06:08;;;;;;;;;;;;;;;14.94;62.15;101773.78;5095172;28;20006;-69
2022/05/22 01:08:34;;;;;;;;;;;;;;;14.92;62.59;101764.97;5093581;28;19916;-69
2022/05/22 01:11:11;;;;;;;;;;;;;;;14.88;62.03;101770.63;5097147;28;19980;-69
2022/05/22 01:13:41;;;;;;;;;;;;;;;14.85;62.59;101770.81;5092375;28;19919;-69
2022/05/22 01:16:06;;;;;;;;;;;;;;;14.80;62.55;101778.31;5093906;28;20026;-69
2022/05/22 01:18:42;;;;;;;;;;;;;;;14.76;61.97;101783.88;5094876;28;19926;-69
2022/05/22 01:21:11;;;;;;;;;;;;;;;14.75;62.35;101778.63;5091493;28;19961;-70
2022/05/22 01:23:36;;;;;;;;;;;;;;;14.70;62.24;101776.22;5092411;28;19959;-69
2022/05/22 01:26:01;;;;;;;;;;;;;;;14.64;62.39;101768.59;5094506;28;19974;-69
2022/05/22 01:28:27;;;;;;;;;;;;;;;14.63;62.44;101766.03;5092342;28;19945;-69
2022/05/22 01:30:52;;;;;;;;;;;;;;;14.58;62.62;101762.78;5077815;28;20367;-69
2022/05/22 01:33:17;;;;;;;;;;;;;;;14.53;62.46;101755.94;5094197;28;19923;-69
2022/05/22 01:35:43;;;;;;;;;;;;;;;14.50;62.40;101750.75;5092629;28;19923;-69
2022/05/22 01:38:09;;;;;;;;;;;;;;;14.48;62.47;101749.13;5093355;28;19912;-69
2022/05/22 01:40:34;;;;;;;;;;;;;;;14.47;62.51;101747.38;5093854;28;19999;-69
2022/05/22 01:42:59;;;;;;;;;;;;;;;14.43;62.47;101736.03;5091816;28;19920;-69
2022/05/22 01:45:25;;;;;;;;;;;;;;;14.42;62.58;101733.47;5092253;28;19920;-69
2022/05/22 01:47:51;;;;;;;;;;;;;;;14.40;62.32;101733.53;5091525;28;19918;-69
2022/05/22 01:50:16;;;;;;;;;;;;;;;14.38;62.43;101732.78;5094055;28;19915;-69
2022/05/22 01:52:44;;;;;;;;;;;;;;;14.35;62.55;101734.81;5094344;28;19931;-69
2022/05/22 01:55:11;;;;;;;;;;;;;;;14.31;62.62;101728.78;5095123;28;19912;-69
2022/05/22 01:57:36;;;;;;;;;;;;;;;14.26;62.90;101739.78;5096978;28;20274;-69
2022/05/22 02:00:03;;;;;;;;;;;;;;;14.21;62.84;101744.59;5094253;28;19919;-69
2022/05/22 02:02:29;;;;;;;;;;;;;;;14.15;63.58;101736.97;5092409;28;19916;-69
2022/05/22 02:04:54;;;;;;;;;;;;;;;14.07;63.47;101737.44;5091097;28;19934;-69
2022/05/22 02:10:06;;;;;;;;;;;;;;;14.04;63.15;101726.94;5093593;28;19923;-69
2022/05/22 02:12:31;;;;;;;;;;;;;;;14.01;63.12;101726.28;5094569;28;20310;-69
2022/05/22 02:14:57;;;;;;;;;;;;;;;13.97;63.07;101722.94;5091953;28;19912;-69
2022/05/22 02:17:22;;;;;;;;;;;;;;;13.96;63.29;101725.69;5091950;28;19923;-69
2022/05/22 02:19:47;;;;;;;;;;;;;;;13.90;63.28;101728.75;5092914;28;19922;-69
2022/05/22 02:22:13;;;;;;;;;;;;;;;13.88;63.27;101717.28;5091255;28;19922;-69
2022/05/22 02:24:39;;;;;;;;;;;;;;;13.84;63.03;101714.81;5095279;28;20397;-69
2022/05/22 02:27:06;;;;;;;;;;;;;;;13.79;63.16;101711.56;5092002;28;19920;-69
2022/05/22 02:29:35;;;;;;;;;;;;;;;13.76;63.56;101708.22;5091872;28;20049;-69
2022/05/22 02:32:01;;;;;;;;;;;;;;;13.71;63.61;101705.00;5093455;28;19915;-69
2022/05/22 02:34:26;;;;;;;;;;;;;;;13.68;63.32;101699.81;5091760;28;20298;-69
2022/05/22 02:36:51;;;;;;;;;;;;;;;13.64;63.31;101701.84;5092802;28;19923;-69
2022/05/22 02:39:18;;;;;;;;;;;;;;;13.61;63.39;101694.84;5092127;28;19922;-69
2022/05/22 02:41:44;;;;;;;;;;;;;;;13.58;63.45;101687.03;5092629;28;20307;-69
2022/05/22 02:44:09;;;;;;;;;;;;;;;13.55;63.61;101687.22;5095307;28;19911;-69
2022/05/22 02:46:34;;;;;;;;;;;;;;;13.52;63.55;101676.72;5092129;28;19938;-69
2022/05/22 02:49:00;;;;;;;;;;;;;;;13.50;63.62;101678.66;5087399;28;19947;-69
2022/05/22 02:51:26;;;;;;;;;;;;;;;13.47;63.98;101675.28;5093174;28;19912;-69
2022/05/22 02:53:54;;;;;;;;;;;;;;;13.39;64.15;101683.78;5094636;28;19960;-69
2022/05/22 02:56:20;;;;;;;;;;;;;;;13.32;64.00;101685.09;5093550;28;19933;-69
2022/05/22 02:58:45;;;;;;;;;;;;;;;13.28;64.76;101694.28;5087496;28;20444;-69
2022/05/22 03:01:11;;;;;;;;;;;;;;;13.24;64.51;101693.56;5091906;28;19912;-69
2022/05/22 03:03:36;;;;;;;;;;;;;;;13.21;64.19;101691.09;5090968;28;19923;-69
2022/05/22 03:08:46;;;;;;;;;;;;;;;13.23;64.78;101688.31;5092024;28;20432;-69
2022/05/22 03:11:12;;;;;;;;;;;;;;;13.20;64.47;101676.00;5090978;28;19958;-69
2022/05/22 03:13:37;;;;;;;;;;;;;;;13.21;64.49;101676.84;5090243;28;19912;-69
2022/05/22 03:16:03;;;;;;;;;;;;;;;13.19;64.79;101676.97;5092863;28;19920;-69
2022/05/22 03:18:28;;;;;;;;;;;;;;;13.15;64.82;101676.28;5101503;28;19988;-69
2022/05/22 03:20:53;;;;;;;;;;;;;;;13.14;64.80;101677.22;5089253;28;19919;-69
2022/05/22 03:23:18;;;;;;;;;;;;;;;13.14;64.87;101674.56;5102325;28;20375;-69
2022/05/22 03:25:47;;;;;;;;;;;;;;;13.12;64.82;101679.16;5092457;28;20016;-69
2022/05/22 03:28:15;;;;;;;;;;;;;;;13.11;64.70;101672.06;5089143;28;20354;-69
2022/05/22 03:30:40;;;;;;;;;;;;;;;13.09;65.79;101662.47;5090046;28;19919;-69
2022/05/22 03:33:05;;;;;;;;;;;;;;;13.02;64.89;101656.59;5099910;28;19916;-69
2022/05/22 03:35:31;;;;;;;;;;;;;;;13.02;64.79;101659.28;5090245;28;19923;-69
2022/05/22 03:37:56;;;;;;;;;;;;;;;13.02;65.15;101658.44;5093130;28;19920;-69
2022/05/22 03:40:22;;;;;;;;;;;;;;;13.03;65.19;101658.34;5091635;28;19912;-69
2022/05/22 03:42:47;;;;;;;;;;;;;;;13.02;65.18;101651.28;5091703;28;19923;-69
2022/05/22 03:45:15;;;;;;;;;;;;;;;13.02;65.18;101642.41;5090341;28;20006;-69
2022/05/22 03:47:40;;;;;;;;;;;;;;;13.01;65.46;101646.88;5092519;28;19924;-69
2022/05/22 03:50:07;;;;;;;;;;;;;;;13.00;65.52;101645.19;5102606;28;20051;-69
2022/05/22 03:52:33;;;;;;;;;;;;;;;12.97;65.44;101634.69;5107570;28;20358;-69
2022/05/22 03:54:59;;;;;;;;;;;;;;;12.96;65.09;101639.13;5089435;28;19961;-69
2022/05/22 03:57:24;;;;;;;;;;;;;;;12.96;65.20;101630.28;5090038;28;20367;-69
2022/05/22 03:59:49;;;;;;;;;;;;;;;12.95;65.46;101641.91;5076647;28;20006;-69
2022/05/22 04:02:15;;;;;;;;;;;;;;;12.95;65.07;101652.59;5093215;28;20590;-69
2022/05/22 04:04:41;;;;;;;;;;;;;;;12.93;65.06;101649.16;5090217;28;19919;-69
2022/05/22 04:07:06;;;;;;;;;;;;;;;12.94;65.51;101662.44;5093914;28;19939;-69
2022/05/22 04:09:33;;;;;;;;;;;;;;;12.96;65.38;101648.97;5091486;28;19919;-69
2022/05/22 04:11:59;;;;;;;;;;;;;;;12.96;65.54;101657.84;5091468;28;19923;-69
2022/05/22 04:14:25;;;;;;;;;;;;;;;12.98;65.43;101656.91;5089830;28;19916;-69
2022/05/22 04:16:50;;;;;;;;;;;;;;;12.96;65.85;101649.81;5090452;28;19919;-69
2022/05/22 04:19:16;;;;;;;;;;;;;;;12.97;65.85;101648.03;5091887;28;19934;-69
2022/05/22 04:21:41;;;;;;;;;;;;;;;12.97;65.80;101648.03;5092352;28;19912;-69
2022/05/22 04:26:51;;;;;;;;;;;;;;;12.99;66.32;101650.59;5089693;28;19938;-69
2022/05/22 04:29:17;;;;;;;;;;;;;;;13.00;66.42;101642.50;5072915;28;19927;-69
2022/05/22 04:31:42;;;;;;;;;;;;;;;13.00;66.51;101637.16;5090887;28;20275;-69
2022/05/22 04:34:07;;;;;;;;;;;;;;;13.01;67.37;101640.69;5090007;28;19916;-69
2022/05/22 04:36:32;;;;;;;;;;;;;;;12.99;67.92;101637.25;5090140;28;19927;-69
2022/05/22 04:38:58;;;;;;;;;;;;;;;12.99;68.81;101642.59;5091439;28;19912;-69
2022/05/22 04:41:23;;;;;;;;;;;;;;;12.96;68.96;101648.97;5092668;28;19964;-69
2022/05/22 04:43:49;;;;;;;;;;;;;;;12.95;68.14;101647.25;5089320;28;19967;-69
2022/05/22 04:46:14;;;;;;;;;;;;;;;12.98;68.46;101651.56;5092966;28;20371;-69
2022/05/22 04:48:39;;;;;;;;;;;;;;;13.00;68.04;101653.19;5093081;28;19998;-69
2022/05/22 04:51:04;;;;;;;;;;;;;;;13.03;69.38;101661.03;5088579;28;19919;-69
2022/05/22 04:53:32;;;;;;;;;;;;;;;13.01;68.91;101646.88;5094668;28;19969;-69
2022/05/22 04:55:58;;;;;;;;;;;;;;;13.07;68.55;101653.69;5094774;28;20278;-69
2022/05/22 04:58:23;;;;;;;;;;;;;;;13.10;67.75;101658.81;5089411;28;19927;-69
2022/05/22 05:00:49;;;;;;;;;;;;;;;13.14;68.14;101647.00;5093277;28;19915;-69
2022/05/22 05:03:17;;;;;;;;;;;;;;;13.14;68.37;101639.84;5094135;28;20003;-69
2022/05/22 05:05:42;;;;;;;;;;;;;;;13.17;68.29;101636.97;5094054;28;19919;-69
2022/05/22 05:08:08;;;;;;;;;;;;;;;13.22;68.38;101642.03;5096344;28;19911;-69
2022/05/22 05:10:33;;;;;;;;;;;;;;;13.29;68.41;101645.22;5077742;28;20440;-69
2022/05/22 05:13:00;;;;;;;;;;;;;;;13.32;68.45;101643.22;5093834;28;20362;-69
2022/05/22 05:15:25;;;;;;;;;;;;;;;13.37;68.34;101635.78;5094079;28;20286;-69
2022/05/22 05:17:51;;;;;;;;;;;;;;;13.45;68.00;101637.13;5098352;28;19919;-69
2022/05/22 05:20:20;;;;;;;;;;;;;;;13.51;68.20;101631.41;5095944;28;19916;-69
2022/05/22 05:22:46;;;;;;;;;;;;;;;13.59;67.87;101639.81;5093601;28;19916;-69
2022/05/22 05:25:15;;;;;;;;;;;;;;;13.65;68.35;101636.75;5093064;28;20295;-69
2022/05/22 05:27:40;;;;;;;;;;;;;;;13.73;68.26;101633.56;5092250;28;19947;-69
2022/05/22 05:30:06;;;;;;;;;;;;;;;13.79;68.35;101638.50;5094287;28;19947;-69
2022/05/22 05:32:31;;;;;;;;;;;;;;;13.82;67.68;101639.19;5094277;28;19912;-69
2022/05/22 05:34:57;;;;;;;;;;;;;;;13.87;67.92;101644.25;5093982;28;20349;-69
2022/05/22 05:37:23;;;;;;;;;;;;;;;13.93;68.37;101651.00;5093538;28;20394;-70
2022/05/22 05:39:50;;;;;;;;;;;;;;;13.95;67.80;101646.44;5092448;28;19919;-69
2022/05/22 05:42:16;;;;;;;;;;;;;;;14.01;67.85;101652.22;5077949;28;19924;-69
2022/05/22 05:44:41;;;;;;;;;;;;;;;14.13;67.29;101647.91;5093353;28;19923;-69
2022/05/22 05:47:07;;;;;;;;;;;;;;;14.19;67.16;101646.66;5094089;28;19950;-69
2022/05/22 05:49:33;;;;;;;;;;;;;;;14.21;67.40;101652.78;5094887;28;19923;-69
2022/05/22 05:52:00;;;;;;;;;;;;;;;14.28;67.03;101651.41;5091912;28;19912;-69
2022/05/22 05:54:26;;;;;;;;;;;;;;;14.34;67.42;101647.47;5094137;28;20241;-69
2022/05/22 05:56:51;;;;;;;;;;;;;;;14.41;67.69;101649.63;5093366;28;19978;-69
2022/05/22 05:59:17;;;;;;;;;;;;;;;14.48;68.15;101650.06;5094222;28;20418;-69
2022/05/22 06:01:42;;;;;;;;;;;;;;;14.52;67.50;101657.81;5092343;28;20355;-69
2022/05/22 06:04:07;;;;;;;;;;;;;;;14.60;67.02;101646.59;5076992;28;20339;-69
2022/05/22 06:06:32;;;;;;;;;;;;;;;14.70;66.62;101649.50;5092391;28;20287;-69
2022/05/22 06:08:58;;;;;;;;;;;;;;;14.83;66.84;101646.88;5091720;28;19916;-70
2022/05/22 06:11:23;;;;;;;;;;;;;;;14.90;66.45;101650.84;5092551;28;19920;-69
2022/05/22 06:13:49;;;;;;;;;;;;;;;14.90;65.91;101650.84;5093281;28;20019;-69
2022/05/22 06:16:15;;;;;;;;;;;;;;;14.94;66.39;101649.66;5092484;28;19959;-69
2022/05/22 06:18:42;;;;;;;;;;;;;;;14.93;66.28;101646.13;5092423;28;19957;-69
2022/05/22 06:21:12;;;;;;;;;;;;;;;14.94;66.13;101646.97;5093085;28;20006;-69
2022/05/22 06:23:39;;;;;;;;;;;;;;;14.93;66.08;101656.84;5091749;28;20341;-69
2022/05/22 06:26:06;;;;;;;;;;;;;;;14.92;66.14;101651.59;5091453;28;19912;-69
2022/05/22 06:28:31;;;;;;;;;;;;;;;14.87;65.92;101654.59;5090561;28;19913;-69
2022/05/22 06:30:57;;;;;;;;;;;;;;;14.88;65.84;101658.13;5092345;28;19916;-69
2022/05/22 06:33:23;;;;;;;;;;;;;;;14.90;65.81;101656.19;5091637;28;19923;-69
2022/05/22 06:35:49;;;;;;;;;;;;;;;14.89;65.76;101660.72;5074331;28;20010;-69
2022/05/22 06:41:01;;;;;;;;;;;;;;;14.95;66.10;101652.25;5093365;28;19998;-69
2022/05/22 06:43:26;;;;;;;;;;;;;;;14.94;65.94;101660.38;5092158;28;19916;-69
2022/05/22 06:45:51;;;;;;;;;;;;;;;14.93;66.03;101659.53;5089810;28;19916;-69
2022/05/22 06:48:17;;;;;;;;;;;;;;;14.94;66.20;101658.59;5091056;28;20077;-69
2022/05/22 06:50:42;;;;;;;;;;;;;;;15.01;66.08;101659.00;5092391;28;19931;-69
2022/05/22 06:53:08;;;;;;;;;;;;;;;15.20;66.18;101648.72;5091527;28;20429;-69
2022/05/22 06:55:33;;;;;;;;;;;;;;;15.44;65.83;101654.19;5093372;28;19999;-69
2022/05/22 06:57:59;;;;;;;;;;;;;;;15.59;65.23;101659.44;5093519;28;19937;-69
2022/05/22 07:00:27;;;;;;;;;;;;;;;15.73;64.82;101659.31;5091457;28;20002;-69
2022/05/22 07:02:52;;;;;;;;;;;;;;;15.89;65.21;101654.56;5089361;28;19916;-69
2022/05/22 07:05:18;;;;;;;;;;;;;;;16.04;64.32;101657.13;5073422;28;20827;-69
2022/05/22 07:07:43;;;;;;;;;;;;;;;16.11;63.89;101648.47;5091733;28;19916;-69
2022/05/22 07:10:10;;;;;;;;;;;;;;;16.15;63.69;101661.66;5100923;28;20313;-69
2022/05/22 07:12:36;;;;;;;;;;;;;;;16.19;63.90;101652.44;5111679;28;19911;-69
2022/05/22 07:15:01;;;;;;;;;;;;;;;16.30;64.25;101650.69;5093782;28;20425;-69
2022/05/22 07:17:27;;;;;;;;;;;;;;;16.50;64.17;101642.94;5094081;28;19920;-69
2022/05/22 07:19:53;;;;;;;;;;;;;;;16.68;63.89;101644.25;5073311;28;20010;-69
2022/05/22 07:22:18;;;;;;;;;;;;;;;16.85;63.41;101648.34;5091252;28;19945;-69
2022/05/22 07:24:43;;;;;;;;;;;;;;;16.97;62.80;101642.06;5088918;28;19916;-69
2022/05/22 07:27:09;;;;;;;;;;;;;;;17.11;62.88;101637.41;5090651;28;19938;-69
2022/05/22 07:29:35;;;;;;;;;;;;;;;17.26;61.50;101641.59;5087710;28;19912;-70
2022/05/22 07:32:02;;;;;;;;;;;;;;;17.35;61.97;101629.25;5090165;28;19926;-69
2022/05/22 07:34:28;;;;;;;;;;;;;;;17.44;61.83;101633.91;5091060;28;19919;-69
2022/05/22 07:36:54;;;;;;;;;;;;;;;17.47;61.39;101636.34;5090254;28;19920;-69
2022/05/22 07:39:20;;;;;;;;;;;;;;;17.44;60.63;101637.47;5091852;28;19916;-69
2022/05/22 07:41:45;;;;;;;;;;;;;;;17.38;60.59;101643.34;5090914;28;19931;-69
2022/05/22 07:44:11;;;;;;;;;;;;;;;17.49;60.03;101631.69;5089137;28;19923;-69
2022/05/22 07:46:38;;;;;;;;;;;;;;;17.56;59.11;101637.44;5089411;28;20409;-69
2022/05/22 07:49:04;;;;;;;;;;;;;;;17.60;59.29;101637.09;5090968;28;19924;-69
2022/05/22 07:51:29;;;;;;;;;;;;;;;17.67;58.34;101638.28;5074034;28;19999;-69
2022/05/22 07:53:55;;;;;;;;;;;;;;;17.68;55.69;101631.94;5090487;28;19970;-69
2022/05/22 07:56:22;;;;;;;;;;;;;;;17.62;57.23;101627.06;5090991;28;19912;-69
2022/05/22 07:58:48;;;;;;;;;;;;;;;17.64;57.69;101619.72;5071624;28;19962;-70
2022/05/22 08:01:14;;;;;;;;;;;;;;;17.71;57.30;101615.56;5090415;28;19912;-69
2022/05/22 08:03:39;;;;;;;;;;;;;;;17.73;57.77;101620.81;5096032;28;19916;-69
2022/05/22 08:06:07;;;;;;;;;;;;;;;17.74;55.75;101619.84;5093886;28;20378;-69
2022/05/22 08:08:33;;;;;;;;;;;;;;;17.72;53.92;101616.41;5109653;28;19946;-69
2022/05/22 08:10:59;;;;;;;;;;;;;;;17.72;54.69;101611.03;5097818;28;20367;-68
2022/05/22 08:13:24;;;;;;;;;;;;;;;17.90;53.12;101616.78;5090582;28;19912;-68
2022/05/22 08:15:50;;;;;;;;;;;;;;;18.17;54.66;101616.34;5089546;28;19985;-68
2022/05/22 08:18:15;;;;;;;;;;;;;;;18.45;54.57;101609.50;5090876;28;20329;-68
2022/05/22 08:20:41;;;;;;;;;;;;;;;18.73;52.34;101602.66;5094802;28;20373;-68
2022/05/22 08:23:10;;;;;;;;;;;;;;;18.97;54.35;101594.31;5089289;28;19920;-69
2022/05/22 08:25:38;;;;;;;;;;;;;;;19.17;51.60;101587.16;5089399;28;19912;-69
2022/05/22 08:28:04;;;;;;;;;;;;;;;19.28;50.34;101587.06;5092958;28;20002;-69
2022/05/22 08:30:32;;;;;;;;;;;;;;;19.31;49.19;101585.09;5094180;28;19916;-69
2022/05/22 08:32:58;;;;;;;;;;;;;;;19.42;50.29;101568.81;5094631;28;19912;-68
2022/05/22 08:35:25;;;;;;;;;;;;;;;19.54;46.69;101575.81;5094922;28;19938;-68
2022/05/22 08:37:50;;;;;;;;;;;;;;;19.59;48.90;101568.16;5095136;28;19998;-69
2022/05/22 08:40:19;;;;;;;;;;;;;;;19.65;46.46;101564.94;5094278;28;20336;-72
2022/05/22 08:42:50;;;;;;;;;;;;;;;19.62;48.64;101564.31;5092803;28;20286;-72
2022/05/22 08:45:20;;;;;;;;;;;;;;;19.59;47.10;101560.06;5092049;28;19950;-71
2022/05/22 08:48:04;;;;;;;;;;;;;;;19.60;48.05;101558.22;5100807;28;19912;-72
2022/05/22 08:50:30;;;;;;;;;;;;;;;19.63;48.24;101553.41;5094231;28;19904;-65
2022/05/22 08:53:00;;;;;;;;;;;;;;;19.48;47.05;101554.78;5096390;28;20370;-65
2022/05/22 08:58:56;;;;;;;;;;;;;;;19.32;47.96;101557.13;5097327;28;19916;-65
2022/05/22 09:01:11;;;;;;;;;;;;;;;19.01;49.45;101554.44;5092435;28;20275;-65
2022/05/22 09:03:40;;;;;;;;;;;;;;;18.92;49.59;101539.94;5092225;28;19922;-65
2022/05/22 09:06:06;;;;;;;;;;;;;;;18.93;49.12;101541.63;5097411;28;19912;-66
2022/05/22 09:08:37;;;;;;;;;;;;;;;18.99;49.77;101538.41;5094963;28;19923;-65
2022/05/22 09:11:02;;;;;;;;;;;;;;;19.05;49.47;101535.16;5092921;28;20313;-65
2022/05/22 09:13:27;;;;;;;;;;;;;;;19.10;48.55;101532.06;5092499;28;20007;-65
2022/05/22 09:15:56;;;;;;;;;;;;;;;19.12;48.17;101534.63;5092759;28;20007;-65
2022/05/22 09:18:30;;;;;;;;;;;;;;;19.09;46.79;101529.50;5092431;28;19912;-65
2022/05/22 09:21:14;;;;;;;;;;;;;;;19.04;48.43;101525.38;5093910;28;20430;-65
2022/05/22 09:23:42;;;;;;;;;;;;;;;19.10;48.78;101529.38;5092158;28;19916;-65
2022/05/22 09:26:39;;;;;;;;;;;;;;;19.15;49.29;101520.84;5091722;28;19943;-64
2022/05/22 09:29:08;;;;;;;;;;;;;;;19.23;49.39;101519.19;5065623;28;20366;-65
2022/05/22 09:31:45;;;;;;;;;;;;;;;19.34;49.31;101518.25;5091551;28;20256;-65
2022/05/22 09:34:29;;;;;;;;;;;;;;;19.44;51.00;101516.44;5093521;28;19908;-67
2022/05/22 09:36:57;;;;;;;;;;;;;;;19.54;50.02;101516.44;5092080;28;19998;-67
2022/05/22 09:39:25;;;;;;;;;;;;;;;19.54;48.47;101505.66;5090024;28;19916;-67
2022/05/22 09:41:51;;;;;;;;;;;;;;;19.57;48.70;101507.22;5092096;28;19916;-66
2022/05/22 09:44:42;;;;;;;;;;;;;;;19.63;48.96;101504.81;5093462;28;20279;-67
2022/05/22 09:47:07;;;;;;;;;;;;;;;19.61;47.06;101492.44;5093753;28;19961;-67
2022/05/22 09:49:43;;;;;;;;;;;;;;;19.46;47.62;101495.53;5092180;28;21248;-66
2022/05/22 09:52:24;;;;;;;;;;;;;;;19.43;48.93;101495.81;5095310;28;19918;-67
2022/05/22 09:54:58;;;;;;;;;;;;;;;19.53;47.77;101506.66;5090965;28;19946;-67
2022/05/22 09:57:23;;;;;;;;;;;;;;;19.60;48.67;101504.25;5092918;28;20329;-66
2022/05/22 09:59:55;;;;;;;;;;;;;;;19.71;47.36;101499.63;5096061;28;19915;-65
2022/05/22 10:02:33;;;;;;;;;;;;;;;19.81;47.48;101506.88;5087910;28;19915;-65
2022/05/22 10:05:17;;;;;;;;;;;;;;;19.84;47.86;101496.63;5093298;28;19912;-65
2022/05/22 10:07:51;;;;;;;;;;;;;;;19.87;47.02;101498.19;5093974;28;19916;-65
2022/05/22 10:10:27;;;;;;;;;;;;;;;19.93;47.28;101497.63;5095501;28;19916;-65
2022/05/22 10:12:56;;;;;;;;;;;;;;;20.00;47.15;101490.69;5092636;28;19919;-65
2022/05/22 10:15:28;;;;;;;;;;;;;;;20.11;47.26;101501.31;5091928;28;19923;-68
2022/05/22 10:17:53;;;;;;;;;;;;;;;20.19;47.88;101493.34;5092035;28;20396;-68
2022/05/22 10:20:21;;;;;;;;;;;;;;;20.29;48.18;101487.94;5089488;28;19920;-69
2022/05/22 10:22:58;;;;;;;;;;;;;;;20.33;46.30;101478.56;5090680;28;20340;-69
2022/05/22 10:25:42;;;;;;;;;;;;;;;20.41;48.31;101484.09;5087544;28;19912;-67
2022/05/22 10:28:13;;;;;;;;;;;;;;;20.48;46.87;101481.66;5094453;28;20340;-66
2022/05/22 10:30:42;;;;;;;;;;;;;;;20.48;45.43;101484.34;5086030;28;19912;-66
2022/05/22 10:33:29;;;;;;;;;;;;;;;20.50;44.96;101479.66;5092400;28;19912;-67
2022/05/22 10:36:02;;;;;;;;;;;;;;;20.44;44.14;101485.63;5093046;28;19963;-67
2022/05/22 10:38:35;;;;;;;;;;;;;;;20.27;45.87;101481.00;5092011;28;19939;-67
2022/05/22 10:43:59;;;;;;;;;;;;;;;20.50;46.78;101463.44;5092392;28;19939;-67
2022/05/22 10:46:25;;;;;;;;;;;;;;;20.59;45.80;101459.06;5092216;28;19920;-67
2022/05/22 10:48:55;;;;;;;;;;;;;;;20.60;46.25;101458.03;5089662;28;19985;-69
2022/05/22 10:51:22;;;;;;;;;;;;;;;20.67;45.82;101455.59;5088183;28;19973;-68
2022/05/22 10:53:49;;;;;;;;;;;;;;;20.69;46.56;101456.31;5089381;28;19933;-66
2022/05/22 10:56:14;;;;;;;;;;;;;;;20.62;45.47;101456.06;5093351;28;19920;-65
2022/05/22 10:58:57;;;;;;;;;;;;;;;20.48;46.29;101441.13;5089363;28;19912;-65
2022/05/22 11:01:24;;;;;;;;;;;;;;;20.40;46.87;101431.03;5092117;28;19943;-65
2022/05/22 11:04:00;;;;;;;;;;;;;;;20.36;45.99;101424.22;5091886;28;19966;-65
2022/05/22 11:06:25;;;;;;;;;;;;;;;20.41;46.94;101429.16;5091708;28;20007;-65
2022/05/22 11:08:56;;;;;;;;;;;;;;;20.53;47.35;101430.75;5088945;28;19999;-65
2022/05/22 11:11:24;;;;;;;;;;;;;;;20.64;46.88;101438.66;5091323;28;19999;-65
2022/05/22 11:13:50;;;;;;;;;;;;;;;20.61;45.44;101435.41;5091006;28;19916;-66
2022/05/22 11:16:17;;;;;;;;;;;;;;;20.53;46.41;101430.75;5090541;28;19965;-66
2022/05/22 11:18:43;;;;;;;;;;;;;;;20.50;46.99;101424.75;5091785;28;20427;-66
2022/05/22 11:21:47;;;;;;;;;;;;;;;20.57;45.31;101424.03;5090809;28;19919;-66
2022/05/22 11:24:19;;;;;;;;;;;;;;;20.72;44.70;101410.06;5067666;28;20012;-66
2022/05/22 11:27:09;;;;;;;;;;;;;;;20.84;45.60;101406.16;5068850;28;19912;-65
2022/05/22 11:29:53;;;;;;;;;;;;;;;20.98;45.15;101402.94;5081317;28;19912;-65
2022/05/22 11:32:38;;;;;;;;;;;;;;;21.02;45.05;101393.50;5091354;28;19938;-66
2022/05/22 11:35:03;;;;;;;;;;;;;;;21.03;44.65;101387.13;5088502;28;19980;-65
2022/05/22 11:37:35;;;;;;;;;;;;;;;21.10;43.52;101382.78;5091381;28;20449;-66
2022/05/22 11:40:00;;;;;;;;;;;;;;;21.15;43.42;101376.94;5090759;28;20367;-65
2022/05/22 11:42:25;;;;;;;;;;;;;;;21.12;42.88;101376.38;5090567;28;19923;-65
2022/05/22 11:44:50;;;;;;;;;;;;;;;21.14;42.71;101379.78;5090691;28;19922;-65
2022/05/22 11:47:33;;;;;;;;;;;;;;;21.08;42.53;101373.13;5087156;28;19916;-65
2022/05/22 11:50:14;;;;;;;;;;;;;;;21.06;43.40;101370.59;5086915;28;19951;-65
2022/05/22 11:52:58;;;;;;;;;;;;;;;21.13;43.80;101365.41;5091313;28;20006;-65
2022/05/22 11:55:31;;;;;;;;;;;;;;;21.30;44.18;101363.72;5088118;28;20329;-66
2022/05/22 11:58:19;;;;;;;;;;;;;;;21.43;44.32;101360.66;5090178;28;19970;-67
2022/05/22 12:00:44;;;;;;;;;;;;;;;21.55;43.90;101349.41;5083293;28;19938;-65
2022/05/22 12:03:36;;;;;;;;;;;;;;;21.66;43.51;101342.09;5095782;28;19915;-66
2022/05/22 12:06:13;;;;;;;;;;;;;;;21.75;43.58;101324.88;5094398;28;20298;-65
2022/05/22 12:08:56;;;;;;;;;;;;;;;21.81;43.08;101331.53;5094904;28;19912;-67
2022/05/22 12:11:41;;;;;;;;;;;;;;;21.83;43.22;101329.53;5093260;28;19919;-65
2022/05/22 12:14:16;;;;;;;;;;;;;;;21.81;42.68;101320.69;5094619;28;19912;-66
2022/05/22 12:16:49;;;;;;;;;;;;;;;21.87;43.28;101312.78;5094474;28;20010;-65
2022/05/22 12:19:25;;;;;;;;;;;;;;;21.96;42.83;101306.41;5093050;28;19912;-65
2022/05/22 12:22:01;;;;;;;;;;;;;;;22.01;42.89;101308.66;5093976;28;19946;-64
2022/05/22 12:24:39;;;;;;;;;;;;;;;22.02;42.96;101306.78;5113060;28;19920;-65
2022/05/22 12:27:12;;;;;;;;;;;;;;;22.02;40.54;101304.91;5115729;28;20018;-64
2022/05/22 12:30:04;;;;;;;;;;;;;;;21.92;41.40;101307.75;5110233;28;19916;-65
2022/05/22 12:32:33;;;;;;;;;;;;;;;21.96;43.02;101302.84;5093109;28;20378;-64
2022/05/22 12:34:59;;;;;;;;;;;;;;;21.96;41.68;101294.72;5095027;28;20007;-64
2022/05/22 12:37:34;;;;;;;;;;;;;;;22.00;42.24;101288.84;5095185;28;20374;-64
2022/05/22 12:40:17;;;;;;;;;;;;;;;21.98;40.93;101266.47;5092272;28;19931;-66
2022/05/22 12:42:48;;;;;;;;;;;;;;;22.15;41.65;101280.94;5094849;28;20351;-64
2022/05/22 12:45:16;;;;;;;;;;;;;;;22.25;41.59;101280.84;5093088;28;19916;-64
2022/05/22 12:47:43;;;;;;;;;;;;;;;22.29;41.18;101289.50;5094263;28;20015;-65
2022/05/22 12:50:11;;;;;;;;;;;;;;;22.24;41.37;101284.59;5092716;28;20011;-65
2022/05/22 12:52:39;;;;;;;;;;;;;;;22.26;40.97;101276.28;5093375;28;19916;-65
2022/05/22 12:55:28;;;;;;;;;;;;;;;22.33;40.45;101285.47;5092253;28;19999;-66
2022/05/22 12:57:54;;;;;;;;;;;;;;;22.37;40.56;101276.84;5088350;28;19916;-65
2022/05/22 13:00:31;;;;;;;;;;;;;;;22.41;41.20;101275.50;5094277;28;19911;-64